< Cyclone 198204 1982 Season Cyclone 198206 >
Cyclone 198205 (CHRIS)
General InformationTrack Information on Google MapsList of All Images || ResourceGoogle EarthGE AnimationAtom FeedGeoJSON
Detalied Best Track (Time Zone = UTC)
Year Month Day Hour Lat. Long. Pressure (hPa) Wind (kt) Class Image Chart
1982 1 5 00 -10.2 105.1 1007 0 0 Image --
1982 1 5 06 -10.6 105.3 1006 0 0 Image --
1982 1 5 12 -10.9 105.4 1005 0 0 Image --
1982 1 5 18 -11.2 105.1 1004 0 0 Image --
1982 1 6 00 -11.3 104.7 1003 0 0 Image --
1982 1 6 12 -12.0 103.0 999 0 0 Image --
1982 1 6 18 -12.6 101.6 997 0 0 Image --
1982 1 7 00 -13.0 100.5 994 0 0 Image --
1982 1 7 06 -13.4 99.4 991 0 0 Image --
1982 1 7 12 -13.6 98.4 988 0 0 Image --
1982 1 7 18 -13.7 97.2 985 0 0 Image --
1982 1 8 00 -13.7 95.6 981 0 0 Image --
1982 1 8 06 -13.7 94.4 976 0 0 Image --
1982 1 8 12 -13.7 93.2 973 0 0 Image --
1982 1 8 18 -13.7 91.8 969 0 0 Image --
1982 1 9 00 -13.7 91.0 965 0 0 Image --
1982 1 9 06 -13.7 89.4 960 0 0 Image --
1982 1 9 12 -13.3 88.1 958 0 0 Image --
1982 1 9 18 -13.0 87.0 954 0 0 Image --
1982 1 10 00 -12.7 86.0 950 0 0 Image --
1982 1 10 06 -12.4 85.1 947 0 0 Image --
1982 1 10 12 -12.2 84.2 944 0 0 Image --
1982 1 10 18 -12.2 83.1 942 0 0 Image --
1982 1 11 00 -12.2 82.0 939 0 0 Image --
1982 1 11 06 -12.2 81.2 936 0 0 Image --
1982 1 11 12 -12.4 80.3 934 0 0 Image --
< Cyclone 198204 1982 Season Cyclone 198206 >

Help